sensor_id;sensor_type;location;lat;lon;timestamp;pressure;altitude;pressure_sealevel;temperature;humidity
33286;BME280;19656;50.096;20.014;2023-11-21T00:04:45;98128.12;;;10.80;78.71
33286;BME280;19656;50.096;20.014;2023-11-21T00:09:48;98135.59;;;10.77;78.54
33286;BME280;19656;50.096;20.014;2023-11-21T00:14:51;98143.73;;;10.75;78.56
33286;BME280;19656;50.096;20.014;2023-11-21T00:19:59;98149.06;;;10.75;78.68
33286;BME280;19656;50.096;20.014;2023-11-21T00:25:03;98155.45;;;10.77;78.68
33286;BME280;19656;50.096;20.014;2023-11-21T00:30:09;98158.27;;;10.89;78.51
33286;BME280;19656;50.096;20.014;2023-11-21T00:35:12;98155.41;;;10.89;78.08
33286;BME280;19656;50.096;20.014;2023-11-21T00:40:15;98153.63;;;10.85;78.19
33286;BME280;19656;50.096;20.014;2023-11-21T00:45:18;98157.90;;;10.80;78.19
33286;BME280;19656;50.096;20.014;2023-11-21T00:50:21;98159.80;;;10.76;78.24
33286;BME280;19656;50.096;20.014;2023-11-21T00:55:25;98159.68;;;10.78;78.24
33286;BME280;19656;50.096;20.014;2023-11-21T01:00:29;98159.27;;;10.83;77.96
33286;BME280;19656;50.096;20.014;2023-11-21T01:05:32;98156.43;;;10.85;77.66
33286;BME280;19656;50.096;20.014;2023-11-21T01:10:36;98159.95;;;10.83;77.73
33286;BME280;19656;50.096;20.014;2023-11-21T01:15:39;98157.83;;;10.81;77.81
33286;BME280;19656;50.096;20.014;2023-11-21T01:20:42;98159.02;;;10.75;77.94
33286;BME280;19656;50.096;20.014;2023-11-21T01:25:45;98154.75;;;10.71;78.11
33286;BME280;19656;50.096;20.014;2023-11-21T01:30:49;98153.08;;;10.76;78.04
33286;BME280;19656;50.096;20.014;2023-11-21T01:35:52;98156.13;;;10.80;77.92
33286;BME280;19656;50.096;20.014;2023-11-21T01:40:58;98154.83;;;10.81;77.75
33286;BME280;19656;50.096;20.014;2023-11-21T01:46:03;98160.34;;;10.79;77.57
33286;BME280;19656;50.096;20.014;2023-11-21T01:51:09;98158.55;;;10.77;77.24
33286;BME280;19656;50.096;20.014;2023-11-21T01:56:12;98161.59;;;10.72;77.36
33286;BME280;19656;50.096;20.014;2023-11-21T02:01:16;98165.14;;;10.76;77.32
33286;BME280;19656;50.096;20.014;2023-11-21T02:06:22;98162.28;;;10.79;77.09
33286;BME280;19656;50.096;20.014;2023-11-21T02:11:25;98162.95;;;10.79;77.05
33286;BME280;19656;50.096;20.014;2023-11-21T02:16:30;98159.28;;;10.72;77.07
33286;BME280;19656;50.096;20.014;2023-11-21T02:21:34;98155.69;;;10.65;77.45
33286;BME280;19656;50.096;20.014;2023-11-21T02:26:39;98156.39;;;10.65;77.79
33286;BME280;19656;50.096;20.014;2023-11-21T02:31:45;98160.65;;;10.65;78.17
33286;BME280;19656;50.096;20.014;2023-11-21T02:36:51;98167.42;;;10.74;78.25
33286;BME280;19656;50.096;20.014;2023-11-21T02:41:54;98165.13;;;10.76;78.02
33286;BME280;19656;50.096;20.014;2023-11-21T02:46:57;98162.42;;;10.70;78.00
33286;BME280;19656;50.096;20.014;2023-11-21T02:52:01;98163.02;;;10.64;78.09
33286;BME280;19656;50.096;20.014;2023-11-21T02:57:05;98166.33;;;10.63;78.24
33286;BME280;19656;50.096;20.014;2023-11-21T03:02:08;98166.98;;;10.66;77.98
33286;BME280;19656;50.096;20.014;2023-11-21T03:07:11;98170.67;;;10.64;77.44
33286;BME280;19656;50.096;20.014;2023-11-21T03:12:15;98172.37;;;10.60;77.18
33286;BME280;19656;50.096;20.014;2023-11-21T03:17:18;98176.25;;;10.56;76.65
33286;BME280;19656;50.096;20.014;2023-11-21T03:22:22;98176.48;;;10.53;76.39
33286;BME280;19656;50.096;20.014;2023-11-21T03:27:25;98177.38;;;10.53;76.28
33286;BME280;19656;50.096;20.014;2023-11-21T03:32:28;98172.38;;;10.55;76.23
33286;BME280;19656;50.096;20.014;2023-11-21T03:37:31;98180.10;;;10.54;76.32
33286;BME280;19656;50.096;20.014;2023-11-21T03:42:34;98179.98;;;10.53;76.12
33286;BME280;19656;50.096;20.014;2023-11-21T03:47:38;98185.64;;;10.49;76.06
33286;BME280;19656;50.096;20.014;2023-11-21T03:52:42;98190.12;;;10.49;76.24
33286;BME280;19656;50.096;20.014;2023-11-21T03:57:45;98192.38;;;10.49;76.11
33286;BME280;19656;50.096;20.014;2023-11-21T04:02:48;98190.66;;;10.48;76.11
33286;BME280;19656;50.096;20.014;2023-11-21T04:07:54;98188.17;;;10.48;75.81
33286;BME280;19656;50.096;20.014;2023-11-21T04:12:57;98187.08;;;10.44;75.75
33286;BME280;19656;50.096;20.014;2023-11-21T04:18:00;98190.95;;;10.37;75.66
33286;BME280;19656;50.096;20.014;2023-11-21T04:23:03;98193.99;;;10.35;75.86
33286;BME280;19656;50.096;20.014;2023-11-21T04:28:06;98196.51;;;10.34;75.79
33286;BME280;19656;50.096;20.014;2023-11-21T04:33:09;98193.93;;;10.31;75.80
33286;BME280;19656;50.096;20.014;2023-11-21T04:38:12;98192.77;;;10.35;75.91
33286;BME280;19656;50.096;20.014;2023-11-21T04:43:15;98196.82;;;10.39;76.01
33286;BME280;19656;50.096;20.014;2023-11-21T04:48:19;98208.50;;;10.35;75.94
33286;BME280;19656;50.096;20.014;2023-11-21T04:53:22;98214.92;;;10.32;76.09
33286;BME280;19656;50.096;20.014;2023-11-21T04:58:25;98221.23;;;10.28;76.00
33286;BME280;19656;50.096;20.014;2023-11-21T05:03:28;98220.17;;;10.21;76.13
33286;BME280;19656;50.096;20.014;2023-11-21T05:08:33;98221.91;;;10.24;76.29
33286;BME280;19656;50.096;20.014;2023-11-21T05:13:36;98221.86;;;10.34;76.21
33286;BME280;19656;50.096;20.014;2023-11-21T05:18:40;98226.31;;;10.34;76.04
33286;BME280;19656;50.096;20.014;2023-11-21T05:23:43;98230.98;;;10.31;76.12
33286;BME280;19656;50.096;20.014;2023-11-21T05:28:46;98230.42;;;10.24;76.18
33286;BME280;19656;50.096;20.014;2023-11-21T05:33:49;98235.00;;;10.16;76.37
33286;BME280;19656;50.096;20.014;2023-11-21T05:38:53;98242.80;;;10.16;76.57
33286;BME280;19656;50.096;20.014;2023-11-21T05:43:56;98248.84;;;10.24;76.41
33286;BME280;19656;50.096;20.014;2023-11-21T05:48:59;98256.33;;;10.23;76.12
33286;BME280;19656;50.096;20.014;2023-11-21T05:54:03;98264.39;;;10.25;76.11
33286;BME280;19656;50.096;20.014;2023-11-21T05:59:06;98270.59;;;10.17;76.09
33286;BME280;19656;50.096;20.014;2023-11-21T06:04:09;98271.70;;;10.12;76.44
33286;BME280;19656;50.096;20.014;2023-11-21T06:09:13;98277.98;;;10.08;76.69
33286;BME280;19656;50.096;20.014;2023-11-21T06:14:16;98285.91;;;10.13;77.08
33286;BME280;19656;50.096;20.014;2023-11-21T06:19:21;98297.58;;;10.36;76.84
33286;BME280;19656;50.096;20.014;2023-11-21T06:24:24;98301.80;;;10.49;76.47
33286;BME280;19656;50.096;20.014;2023-11-21T06:29:27;98304.84;;;10.58;76.24
33286;BME280;19656;50.096;20.014;2023-11-21T06:34:30;98301.61;;;10.59;76.34
33286;BME280;19656;50.096;20.014;2023-11-21T06:39:34;98302.26;;;10.57;76.40
33286;BME280;19656;50.096;20.014;2023-11-21T06:44:38;98310.16;;;10.47;76.37
33286;BME280;19656;50.096;20.014;2023-11-21T06:49:42;98311.48;;;10.43;76.59
33286;BME280;19656;50.096;20.014;2023-11-21T06:54:47;98311.68;;;10.48;76.75
33286;BME280;19656;50.096;20.014;2023-11-21T06:59:52;98317.76;;;10.49;76.79
33286;BME280;19656;50.096;20.014;2023-11-21T07:04:55;98322.89;;;10.47;76.82
33286;BME280;19656;50.096;20.014;2023-11-21T07:09:59;98323.55;;;10.45;76.83
33286;BME280;19656;50.096;20.014;2023-11-21T07:15:07;98330.46;;;10.43;77.05
33286;BME280;19656;50.096;20.014;2023-11-21T07:20:12;98330.95;;;10.46;77.34
33286;BME280;19656;50.096;20.014;2023-11-21T07:25:17;98335.23;;;10.48;77.18
33286;BME280;19656;50.096;20.014;2023-11-21T07:30:20;98337.48;;;10.51;77.13
33286;BME280;19656;50.096;20.014;2023-11-21T07:35:25;98338.55;;;10.53;76.87
33286;BME280;19656;50.096;20.014;2023-11-21T07:40:29;98344.52;;;10.49;76.82
33286;BME280;19656;50.096;20.014;2023-11-21T07:45:33;98342.33;;;10.45;76.85
33286;BME280;19656;50.096;20.014;2023-11-21T07:50:37;98347.48;;;10.43;76.96
33286;BME280;19656;50.096;20.014;2023-11-21T07:55:41;98351.02;;;10.35;77.06
33286;BME280;19656;50.096;20.014;2023-11-21T08:00:44;98349.89;;;10.41;77.31
33286;BME280;19656;50.096;20.014;2023-11-21T08:05:47;98349.94;;;10.48;77.17
33286;BME280;19656;50.096;20.014;2023-11-21T08:10:51;98358.56;;;10.49;77.13
33286;BME280;19656;50.096;20.014;2023-11-21T08:16:01;98359.08;;;10.47;77.29
33286;BME280;19656;50.096;20.014;2023-11-21T08:21:08;98363.86;;;10.52;77.35
33286;BME280;19656;50.096;20.014;2023-11-21T08:26:11;98369.09;;;10.53;77.35
33286;BME280;19656;50.096;20.014;2023-11-21T08:31:14;98367.42;;;10.56;77.36
33286;BME280;19656;50.096;20.014;2023-11-21T08:36:18;98368.20;;;10.60;77.28
33286;BME280;19656;50.096;20.014;2023-11-21T08:41:21;98368.96;;;10.67;77.70
33286;BME280;19656;50.096;20.014;2023-11-21T08:46:24;98370.34;;;10.70;77.26
33286;BME280;19656;50.096;20.014;2023-11-21T08:51:29;98378.44;;;10.73;76.94
33286;BME280;19656;50.096;20.014;2023-11-21T08:56:32;98384.10;;;10.66;76.76
33286;BME280;19656;50.096;20.014;2023-11-21T09:01:35;98385.73;;;10.63;76.90
33286;BME280;19656;50.096;20.014;2023-11-21T09:06:39;98386.73;;;10.67;76.88
33286;BME280;19656;50.096;20.014;2023-11-21T09:11:42;98383.92;;;10.69;76.83
33286;BME280;19656;50.096;20.014;2023-11-21T09:16:47;98383.27;;;10.68;76.88
33286;BME280;19656;50.096;20.014;2023-11-21T09:21:50;98383.40;;;10.66;76.91
33286;BME280;19656;50.096;20.014;2023-11-21T09:26:55;98382.48;;;10.59;76.97
33286;BME280;19656;50.096;20.014;2023-11-21T09:31:58;98382.45;;;10.57;77.03
33286;BME280;19656;50.096;20.014;2023-11-21T09:37:02;98376.69;;;10.65;77.38
33286;BME280;19656;50.096;20.014;2023-11-21T09:42:11;98378.54;;;10.72;76.94
33286;BME280;19656;50.096;20.014;2023-11-21T09:47:15;98382.95;;;10.72;77.05
33286;BME280;19656;50.096;20.014;2023-11-21T09:52:25;98384.62;;;10.76;77.00
33286;BME280;19656;50.096;20.014;2023-11-21T09:57:28;98389.59;;;10.76;77.07
33286;BME280;19656;50.096;20.014;2023-11-21T10:02:33;98392.67;;;10.73;76.82
33286;BME280;19656;50.096;20.014;2023-11-21T10:07:39;98388.80;;;10.70;77.03
33286;BME280;19656;50.096;20.014;2023-11-21T10:12:48;98389.66;;;10.78;76.84
33286;BME280;19656;50.096;20.014;2023-11-21T10:17:52;98388.69;;;10.86;76.59
33286;BME280;19656;50.096;20.014;2023-11-21T10:22:56;98390.75;;;10.96;76.29
33286;BME280;19656;50.096;20.014;2023-11-21T10:28:03;98393.40;;;11.08;76.81
33286;BME280;19656;50.096;20.014;2023-11-21T10:33:09;98392.20;;;11.15;75.70
33286;BME280;19656;50.096;20.014;2023-11-21T10:38:14;98391.84;;;11.17;75.67
33286;BME280;19656;50.096;20.014;2023-11-21T10:43:17;98391.65;;;11.18;74.91
33286;BME280;19656;50.096;20.014;2023-11-21T10:48:21;98390.71;;;11.13;74.63
33286;BME280;19656;50.096;20.014;2023-11-21T10:53:28;98391.02;;;11.11;74.92
33286;BME280;19656;50.096;20.014;2023-11-21T10:58:32;98389.40;;;11.09;74.90
33286;BME280;19656;50.096;20.014;2023-11-21T11:03:36;98392.87;;;11.15;75.25
33286;BME280;19656;50.096;20.014;2023-11-21T11:08:40;98384.61;;;11.31;75.16
33286;BME280;19656;50.096;20.014;2023-11-21T11:13:44;98388.13;;;11.27;73.91
33286;BME280;19656;50.096;20.014;2023-11-21T11:18:49;98388.39;;;11.14;73.60
33286;BME280;19656;50.096;20.014;2023-11-21T11:24:17;98387.86;;;11.04;73.62
33286;BME280;19656;50.096;20.014;2023-11-21T11:29:46;98390.45;;;10.96;73.35
33286;BME280;19656;50.096;20.014;2023-11-21T11:35:03;98392.77;;;10.96;73.37
33286;BME280;19656;50.096;20.014;2023-11-21T11:40:08;98395.72;;;10.94;73.08
33286;BME280;19656;50.096;20.014;2023-11-21T11:45:19;98397.92;;;10.85;73.18
33286;BME280;19656;50.096;20.014;2023-11-21T11:50:22;98401.86;;;10.78;73.42
33286;BME280;19656;50.096;20.014;2023-11-21T11:55:27;98402.67;;;10.79;73.95
33286;BME280;19656;50.096;20.014;2023-11-21T12:00:35;98408.75;;;10.81;74.01
33286;BME280;19656;50.096;20.014;2023-11-21T12:05:40;98410.59;;;10.87;73.90
33286;BME280;19656;50.096;20.014;2023-11-21T12:10:48;98408.23;;;10.95;73.35
33286;BME280;19656;50.096;20.014;2023-11-21T12:15:51;98405.16;;;11.03;73.09
33286;BME280;19656;50.096;20.014;2023-11-21T12:20:55;98410.02;;;11.04;72.83
33286;BME280;19656;50.096;20.014;2023-11-21T12:25:58;98407.98;;;11.08;72.66
33286;BME280;19656;50.096;20.014;2023-11-21T12:31:01;98410.85;;;11.07;72.63
33286;BME280;19656;50.096;20.014;2023-11-21T12:36:17;98411.84;;;11.04;72.85
33286;BME280;19656;50.096;20.014;2023-11-21T12:41:20;98413.77;;;11.04;72.90
33286;BME280;19656;50.096;20.014;2023-11-21T12:46:24;98409.45;;;11.10;73.14
33286;BME280;19656;50.096;20.014;2023-11-21T12:51:31;98407.36;;;11.19;72.51
33286;BME280;19656;50.096;20.014;2023-11-21T12:56:38;98410.88;;;11.19;71.86
33286;BME280;19656;50.096;20.014;2023-11-21T13:01:42;98411.46;;;11.19;71.85
33286;BME280;19656;50.096;20.014;2023-11-21T13:06:45;98419.79;;;11.19;72.00
33286;BME280;19656;50.096;20.014;2023-11-21T13:11:49;98416.59;;;11.16;71.79
33286;BME280;19656;50.096;20.014;2023-11-21T13:16:52;98424.91;;;11.07;71.30
33286;BME280;19656;50.096;20.014;2023-11-21T13:21:56;98425.58;;;11.01;71.27
33286;BME280;19656;50.096;20.014;2023-11-21T13:27:01;98424.27;;;10.97;71.54
33286;BME280;19656;50.096;20.014;2023-11-21T13:32:05;98424.49;;;10.94;71.65
33286;BME280;19656;50.096;20.014;2023-11-21T13:37:09;98430.81;;;10.97;72.50
33286;BME280;19656;50.096;20.014;2023-11-21T13:42:12;98430.11;;;11.09;71.63
33286;BME280;19656;50.096;20.014;2023-11-21T13:47:16;98434.33;;;11.19;71.50
33286;BME280;19656;50.096;20.014;2023-11-21T13:52:19;98443.52;;;11.24;71.23
33286;BME280;19656;50.096;20.014;2023-11-21T13:57:25;98444.63;;;11.24;70.52
33286;BME280;19656;50.096;20.014;2023-11-21T14:02:30;98444.59;;;11.22;70.15
33286;BME280;19656;50.096;20.014;2023-11-21T14:07:40;98447.62;;;11.17;69.63
33286;BME280;19656;50.096;20.014;2023-11-21T14:12:50;98448.89;;;11.11;68.88
33286;BME280;19656;50.096;20.014;2023-11-21T14:17:55;98453.02;;;11.13;68.59
33286;BME280;19656;50.096;20.014;2023-11-21T14:22:59;98456.14;;;11.12;68.35
33286;BME280;19656;50.096;20.014;2023-11-21T14:28:03;98458.64;;;11.04;68.54
33286;BME280;19656;50.096;20.014;2023-11-21T14:33:08;98465.31;;;10.98;68.16
33286;BME280;19656;50.096;20.014;2023-11-21T14:38:12;98465.08;;;10.89;68.02
33286;BME280;19656;50.096;20.014;2023-11-21T14:43:18;98470.14;;;10.86;68.22
33286;BME280;19656;50.096;20.014;2023-11-21T14:48:22;98475.34;;;10.82;68.37
33286;BME280;19656;50.096;20.014;2023-11-21T14:53:45;98482.23;;;10.80;68.73
33286;BME280;19656;50.096;20.014;2023-11-21T14:58:57;98485.58;;;10.81;68.79
33286;BME280;19656;50.096;20.014;2023-11-21T15:04:03;98492.58;;;10.75;69.08
33286;BME280;19656;50.096;20.014;2023-11-21T15:09:08;98497.83;;;10.78;69.52
33286;BME280;19656;50.096;20.014;2023-11-21T15:14:12;98500.06;;;10.74;69.30
33286;BME280;19656;50.096;20.014;2023-11-21T15:19:19;98506.36;;;10.65;69.57
33286;BME280;19656;50.096;20.014;2023-11-21T15:24:28;98511.87;;;10.65;69.81
33286;BME280;19656;50.096;20.014;2023-11-21T15:29:31;98518.23;;;10.63;69.90
33286;BME280;19656;50.096;20.014;2023-11-21T15:34:35;98521.94;;;10.63;69.97
33286;BME280;19656;50.096;20.014;2023-11-21T15:39:39;98526.43;;;10.65;69.97
33286;BME280;19656;50.096;20.014;2023-11-21T15:44:43;98530.31;;;10.68;70.05
33286;BME280;19656;50.096;20.014;2023-11-21T15:49:46;98528.59;;;10.70;69.98
33286;BME280;19656;50.096;20.014;2023-11-21T15:54:53;98531.32;;;10.74;70.13
33286;BME280;19656;50.096;20.014;2023-11-21T15:59:57;98534.56;;;10.71;69.75
33286;BME280;19656;50.096;20.014;2023-11-21T16:05:00;98537.91;;;10.63;69.91
33286;BME280;19656;50.096;20.014;2023-11-21T16:10:09;98541.66;;;10.55;70.00
33286;BME280;19656;50.096;20.014;2023-11-21T16:15:17;98544.60;;;10.51;70.24
33286;BME280;19656;50.096;20.014;2023-11-21T16:20:21;98550.92;;;10.50;70.29
33286;BME280;19656;50.096;20.014;2023-11-21T16:25:24;98547.17;;;10.45;70.51
33286;BME280;19656;50.096;20.014;2023-11-21T16:30:27;98552.11;;;10.46;70.55
33286;BME280;19656;50.096;20.014;2023-11-21T16:35:30;98556.42;;;10.50;70.55
33286;BME280;19656;50.096;20.014;2023-11-21T16:40:34;98557.52;;;10.54;70.48
33286;BME280;19656;50.096;20.014;2023-11-21T16:45:37;98561.86;;;10.56;70.42
33286;BME280;19656;50.096;20.014;2023-11-21T16:50:43;98566.13;;;10.56;70.52
33286;BME280;19656;50.096;20.014;2023-11-21T16:55:47;98573.29;;;10.57;70.77
33286;BME280;19656;50.096;20.014;2023-11-21T17:00:52;98579.55;;;10.61;70.84
33286;BME280;19656;50.096;20.014;2023-11-21T17:05:56;98587.23;;;10.59;70.59
33286;BME280;19656;50.096;20.014;2023-11-21T17:11:00;98593.41;;;10.51;70.72
33286;BME280;19656;50.096;20.014;2023-11-21T17:16:03;98602.59;;;10.49;70.97
33286;BME280;19656;50.096;20.014;2023-11-21T17:21:06;98606.16;;;10.52;71.16
33286;BME280;19656;50.096;20.014;2023-11-21T17:26:11;98605.69;;;10.53;71.21
33286;BME280;19656;50.096;20.014;2023-11-21T17:31:17;98604.27;;;10.53;71.50
33286;BME280;19656;50.096;20.014;2023-11-21T17:36:21;98607.48;;;10.50;71.78
33286;BME280;19656;50.096;20.014;2023-11-21T17:41:25;98617.14;;;10.49;72.28
33286;BME280;19656;50.096;20.014;2023-11-21T17:46:28;98624.39;;;10.42;72.68
33286;BME280;19656;50.096;20.014;2023-11-21T17:51:37;98635.16;;;10.37;73.14
33286;BME280;19656;50.096;20.014;2023-11-21T17:56:40;98643.23;;;10.33;73.14
33286;BME280;19656;50.096;20.014;2023-11-21T18:01:46;98646.34;;;10.31;72.98
33286;BME280;19656;50.096;20.014;2023-11-21T18:06:49;98651.42;;;10.32;72.46
33286;BME280;19656;50.096;20.014;2023-11-21T18:11:52;98657.17;;;10.23;71.74
33286;BME280;19656;50.096;20.014;2023-11-21T18:16:56;98666.08;;;10.11;71.43
33286;BME280;19656;50.096;20.014;2023-11-21T18:22:00;98670.95;;;9.94;71.19
33286;BME280;19656;50.096;20.014;2023-11-21T18:27:03;98674.80;;;9.73;70.93
33286;BME280;19656;50.096;20.014;2023-11-21T18:32:07;98673.56;;;9.51;70.78
33286;BME280;19656;50.096;20.014;2023-11-21T18:37:13;98684.91;;;9.22;70.90
33286;BME280;19656;50.096;20.014;2023-11-21T18:42:16;98695.05;;;9.07;71.15
33286;BME280;19656;50.096;20.014;2023-11-21T18:47:20;98699.08;;;8.96;71.06
33286;BME280;19656;50.096;20.014;2023-11-21T18:52:25;98703.10;;;8.89;71.07
33286;BME280;19656;50.096;20.014;2023-11-21T18:57:31;98710.35;;;8.80;70.82
33286;BME280;19656;50.096;20.014;2023-11-21T19:02:34;98717.81;;;8.70;70.31
33286;BME280;19656;50.096;20.014;2023-11-21T19:07:38;98729.05;;;8.72;72.36
33286;BME280;19656;50.096;20.014;2023-11-21T19:12:41;98737.56;;;8.92;70.24
33286;BME280;19656;50.096;20.014;2023-11-21T19:17:45;98743.48;;;8.79;69.50
33286;BME280;19656;50.096;20.014;2023-11-21T19:22:49;98758.30;;;8.64;69.40
33286;BME280;19656;50.096;20.014;2023-11-21T19:27:52;98769.87;;;8.48;69.30
33286;BME280;19656;50.096;20.014;2023-11-21T19:32:55;98778.64;;;8.30;69.07
33286;BME280;19656;50.096;20.014;2023-11-21T19:38:02;98790.58;;;8.10;69.05
33286;BME280;19656;50.096;20.014;2023-11-21T19:43:05;98801.29;;;8.05;70.62
33286;BME280;19656;50.096;20.014;2023-11-21T19:48:08;98806.14;;;8.12;69.44
33286;BME280;19656;50.096;20.014;2023-11-21T19:53:11;98824.71;;;8.00;68.80
33286;BME280;19656;50.096;20.014;2023-11-21T19:58:15;98828.02;;;7.87;68.90
33286;BME280;19656;50.096;20.014;2023-11-21T20:03:20;98839.45;;;7.75;69.00
33286;BME280;19656;50.096;20.014;2023-11-21T20:08:24;98855.55;;;7.68;69.00
33286;BME280;19656;50.096;20.014;2023-11-21T20:13:27;98864.14;;;7.59;69.06
33286;BME280;19656;50.096;20.014;2023-11-21T20:18:31;98872.52;;;7.51;68.99
33286;BME280;19656;50.096;20.014;2023-11-21T20:23:34;98877.87;;;7.43;68.90
33286;BME280;19656;50.096;20.014;2023-11-21T20:28:41;98886.48;;;7.50;69.92
33286;BME280;19656;50.096;20.014;2023-11-21T20:33:46;98898.00;;;7.53;68.70
33286;BME280;19656;50.096;20.014;2023-11-21T20:38:51;98905.52;;;7.37;68.35
33286;BME280;19656;50.096;20.014;2023-11-21T20:43:55;98912.95;;;7.23;68.38
33286;BME280;19656;50.096;20.014;2023-11-21T20:48:59;98923.84;;;7.13;68.50
33286;BME280;19656;50.096;20.014;2023-11-21T20:54:03;98926.70;;;7.09;68.79
33286;BME280;19656;50.096;20.014;2023-11-21T20:59:07;98925.91;;;7.18;69.07
33286;BME280;19656;50.096;20.014;2023-11-21T21:04:10;98935.93;;;7.12;67.87
33286;BME280;19656;50.096;20.014;2023-11-21T21:09:14;98942.70;;;7.07;67.64
33286;BME280;19656;50.096;20.014;2023-11-21T21:14:17;98948.70;;;7.00;67.56
33286;BME280;19656;50.096;20.014;2023-11-21T21:19:20;98954.76;;;6.87;67.43
33286;BME280;19656;50.096;20.014;2023-11-21T21:24:24;98965.32;;;6.80;67.47
33286;BME280;19656;50.096;20.014;2023-11-21T21:29:27;98960.78;;;6.72;67.39
33286;BME280;19656;50.096;20.014;2023-11-21T21:34:31;98965.81;;;6.66;67.60
33286;BME280;19656;50.096;20.014;2023-11-21T21:39:34;98978.31;;;6.59;67.71
33286;BME280;19656;50.096;20.014;2023-11-21T21:44:37;98982.77;;;6.51;67.64
33286;BME280;19656;50.096;20.014;2023-11-21T21:49:42;98993.90;;;6.42;67.81
33286;BME280;19656;50.096;20.014;2023-11-21T21:54:45;99000.73;;;6.35;67.94
33286;BME280;19656;50.096;20.014;2023-11-21T21:59:49;99007.87;;;6.26;68.08
33286;BME280;19656;50.096;20.014;2023-11-21T22:04:52;99026.31;;;6.23;67.92
33286;BME280;19656;50.096;20.014;2023-11-21T22:09:55;99037.02;;;6.20;67.85
33286;BME280;19656;50.096;20.014;2023-11-21T22:14:59;99039.19;;;6.14;67.51
33286;BME280;19656;50.096;20.014;2023-11-21T22:20:03;99047.04;;;6.08;67.44
33286;BME280;19656;50.096;20.014;2023-11-21T22:25:07;99060.27;;;6.04;67.46
33286;BME280;19656;50.096;20.014;2023-11-21T22:30:11;99071.31;;;6.05;67.35
33286;BME280;19656;50.096;20.014;2023-11-21T22:35:14;99073.47;;;6.08;67.47
33286;BME280;19656;50.096;20.014;2023-11-21T22:40:17;99087.15;;;6.09;67.29
33286;BME280;19656;50.096;20.014;2023-11-21T22:45:22;99103.45;;;6.03;66.78
33286;BME280;19656;50.096;20.014;2023-11-21T22:50:25;99114.43;;;5.92;66.17
33286;BME280;19656;50.096;20.014;2023-11-21T22:55:29;99118.71;;;5.82;66.01
33286;BME280;19656;50.096;20.014;2023-11-21T23:00:32;99120.91;;;5.67;66.07
33286;BME280;19656;50.096;20.014;2023-11-21T23:05:36;99132.50;;;5.55;66.24
33286;BME280;19656;50.096;20.014;2023-11-21T23:10:39;99144.81;;;5.42;66.50
33286;BME280;19656;50.096;20.014;2023-11-21T23:15:42;99148.08;;;5.30;66.85
33286;BME280;19656;50.096;20.014;2023-11-21T23:20:49;99155.05;;;5.23;67.14
33286;BME280;19656;50.096;20.014;2023-11-21T23:25:53;99163.45;;;5.19;67.15
33286;BME280;19656;50.096;20.014;2023-11-21T23:30:57;99176.74;;;5.12;66.85
33286;BME280;19656;50.096;20.014;2023-11-21T23:36:00;99180.59;;;5.03;66.87
33286;BME280;19656;50.096;20.014;2023-11-21T23:41:04;99179.27;;;4.95;67.02
33286;BME280;19656;50.096;20.014;2023-11-21T23:46:07;99185.10;;;4.86;67.10
33286;BME280;19656;50.096;20.014;2023-11-21T23:51:10;99184.44;;;4.80;67.60
33286;BME280;19656;50.096;20.014;2023-11-21T23:56:14;99184.93;;;4.76;67.96
